createdAt,value
2023-01-11T00:01:16.065Z,98531.44177767291
2023-01-11T00:04:16.863Z,98535.29043498645
2023-01-11T00:07:16.477Z,98540.87050473524
2023-01-11T00:11:17.420Z,98535.75042145769
2023-01-11T00:14:16.542Z,98533.74155237348
2023-01-11T00:17:16.346Z,98531.0052389933
2023-01-11T00:21:16.669Z,98528.33003029114
2023-01-11T00:24:17.030Z,98529.46540775674
2023-01-11T00:27:16.959Z,98534.81567535561
2023-01-11T00:31:16.806Z,98528.65185193572
2023-01-11T00:34:18.162Z,98531.28379529103
2023-01-11T00:37:16.946Z,98532.86263596942
2023-01-11T00:51:16.465Z,98538.30673514873
2023-01-11T00:54:16.955Z,98538.01883203529
2023-01-11T00:57:16.639Z,98540.57704194324
2023-01-11T01:01:16.503Z,98534.66585077718
2023-01-11T01:04:16.794Z,98529.55163437808
2023-01-11T01:07:16.753Z,98529.58807513844
2023-01-11T01:11:16.824Z,98541.1256885519
2023-01-11T01:14:33.790Z,98543.21918031311
2023-01-11T01:17:17.211Z,98543.31874872374
2023-01-11T01:21:16.431Z,98544.6375050132
2023-01-11T01:24:17.234Z,98542.3370222081
2023-01-11T01:27:18.276Z,98547.0832752214
2023-01-11T01:31:16.561Z,98550.40749409243
2023-01-11T01:34:16.922Z,98544.79777575016
2023-01-11T01:37:16.636Z,98545.63403965428
2023-01-11T01:41:16.166Z,98554.0812176878
2023-01-11T01:45:21.068Z,98557.41556192475
2023-01-11T01:47:16.996Z,98555.64818174933
2023-01-11T01:51:22.088Z,98551.06552382278
2023-01-11T01:54:21.955Z,98554.0933735941
2023-01-11T01:57:21.725Z,98556.2697100438
2023-01-11T02:01:49.406Z,98560.54092185621
2023-01-11T02:04:22.479Z,98558.92050864713
2023-01-11T02:07:19.103Z,98555.16090916655
2023-01-11T02:11:30.624Z,98554.86401060843
2023-01-11T02:14:19.484Z,98556.13676967323
2023-01-11T02:17:16.942Z,98556.74645362224
2023-01-11T02:21:24.720Z,98561.57892273656
2023-01-11T02:24:37.872Z,98556.23941828421
2023-01-11T02:27:28.239Z,98551.42543299617
2023-01-11T02:31:28.179Z,98554.69069383095
2023-01-11T02:34:31.393Z,98548.6681264819
2023-01-11T02:37:28.267Z,98551.16746118198
2023-01-11T02:41:22.268Z,98548.96894134559
2023-01-11T02:45:35.902Z,98553.56406144652
2023-01-11T02:47:28.075Z,98550.38513317687
2023-01-11T02:51:22.456Z,98544.26931801086
2023-01-11T02:54:22.126Z,98547.70326577229
2023-01-11T02:57:17.026Z,98540.71063009727
2023-01-11T03:01:17.985Z,98533.33398040809
2023-01-11T03:04:27.465Z,98531.65644879361
2023-01-11T03:07:31.710Z,98531.67354504789
2023-01-11T03:13:03.231Z,98535.18204262998
2023-01-11T03:14:26.723Z,98534.93670838505
2023-01-11T03:17:30.350Z,98536.8383861626
2023-01-11T03:21:27.789Z,98534.88632986491
2023-01-11T03:24:28.120Z,98529.55246391881
2023-01-11T03:27:21.736Z,98521.5925855067
2023-01-11T03:31:22.163Z,98518.73475267738
2023-01-11T03:34:22.911Z,98519.22673752117
2023-01-11T03:37:22.043Z,98519.5236942882
2023-01-11T03:41:22.684Z,98525.04527580294
2023-01-11T03:44:17.867Z,98523.29551310968
2023-01-11T03:47:18.061Z,98517.22050528873
2023-01-11T03:51:21.632Z,98512.66071856607
2023-01-11T03:54:21.690Z,98511.80297528028
2023-01-11T03:57:20.703Z,98512.83311633694
2023-01-11T04:01:16.736Z,98514.8960814409
2023-01-11T04:04:17.088Z,98514.24990859648
2023-01-11T04:07:17.053Z,98513.97441530575
2023-01-11T04:11:16.163Z,98514.28073632116
2023-01-11T04:14:16.682Z,98515.7351996665
2023-01-11T04:17:16.904Z,98514.99255231245
2023-01-11T04:21:16.055Z,98514.27768301254
2023-01-11T04:24:19.152Z,98515.22371953448
2023-01-11T04:27:16.761Z,98519.06865743658
2023-01-11T04:31:16.278Z,98517.20227227538
2023-01-11T04:34:16.701Z,98514.53324459447
2023-01-11T04:37:17.016Z,98519.00402478679
2023-01-11T04:42:21.406Z,98522.09960254435
2023-01-11T04:44:16.449Z,98518.44760554832
2023-01-11T04:47:18.561Z,98520.13313339982
2023-01-11T04:51:15.742Z,98516.64071910913
2023-01-11T04:54:16.293Z,98518.65672017568
2023-01-11T04:57:16.415Z,98528.25325908774
2023-01-11T05:01:18.149Z,98529.66225231292
2023-01-11T05:04:16.238Z,98525.30004761397
2023-01-11T05:07:16.094Z,98522.41609927024
2023-01-11T05:11:16.895Z,98517.08378029497
2023-01-11T05:14:17.171Z,98512.46111297411
2023-01-11T05:17:16.835Z,98513.45676287837
2023-01-11T05:21:17.628Z,98516.4706836758
2023-01-11T05:24:16.651Z,98510.77303879267
2023-01-11T05:27:16.320Z,98511.44080692198
2023-01-11T05:31:16.792Z,98510.26698093364
2023-01-11T05:34:17.054Z,98509.40325436417
2023-01-11T05:37:16.263Z,98507.89923765388
2023-01-11T05:41:18.739Z,98512.8021177547
2023-01-11T05:51:17.644Z,98517.4542934096
2023-01-11T05:54:19.985Z,98520.09464397289
2023-01-11T05:57:16.844Z,98517.86399281517
2023-01-11T06:01:19.450Z,98523.49991984281
2023-01-11T06:04:17.378Z,98525.04298012744
2023-01-11T06:07:17.419Z,98521.48044462968
2023-01-11T06:11:16.521Z,98518.92111989939
2023-01-11T06:14:16.867Z,98514.8948107413
2023-01-11T06:17:16.908Z,98514.3856836827
2023-01-11T06:21:18.212Z,98519.80431669924
2023-01-11T06:24:17.269Z,98514.25238776067
2023-01-11T06:27:17.315Z,98519.47586901006
2023-01-11T06:31:17.911Z,98520.08426516764
2023-01-11T06:34:17.033Z,98516.13406722216
2023-01-11T06:37:16.917Z,98519.34020578279
2023-01-11T06:41:16.188Z,98519.75332235193
2023-01-11T06:44:16.603Z,98518.79509888476
2023-01-11T06:47:16.720Z,98517.95778988165
2023-01-11T06:51:16.347Z,98519.67825947962
2023-01-11T06:54:22.183Z,98517.17880311003
2023-01-11T06:57:16.737Z,98521.2996648152
2023-01-11T07:01:17.786Z,98520.73747444275
2023-01-11T07:04:19.006Z,98521.76830342703
2023-01-11T07:07:17.028Z,98520.52556479789
2023-01-11T07:11:16.643Z,98522.45860821627
2023-01-11T07:14:20.279Z,98525.832040636
2023-01-11T07:17:16.930Z,98531.96648067432
2023-01-11T07:21:15.980Z,98536.25625555604
2023-01-11T07:24:16.572Z,98531.49370702985
2023-01-11T07:27:16.356Z,98533.21650113064
2023-01-11T07:31:16.305Z,98536.55321133192
2023-01-11T07:34:16.726Z,98535.2631683399
2023-01-11T07:37:28.516Z,98533.95910040496
2023-01-11T07:51:20.670Z,98534.31279687725
2023-01-11T07:54:16.755Z,98534.02519274507
2023-01-11T07:57:16.686Z,98531.93867788545
2023-01-11T08:01:16.839Z,98528.3370312107
2023-01-11T08:04:17.461Z,98534.91630355617
2023-01-11T08:07:17.218Z,98532.97699835715
2023-01-11T08:21:16.107Z,98552.41864848448
2023-01-11T08:24:16.742Z,98554.47731487337
2023-01-11T08:27:16.394Z,98557.69289730216
2023-01-11T08:31:17.244Z,98555.24434763454
2023-01-11T08:34:17.159Z,98551.88470059447
2023-01-11T08:37:17.360Z,98553.69044662778
2023-01-11T08:41:16.339Z,98560.21511422646
2023-01-11T08:44:29.064Z,98563.30224294026
2023-01-11T08:47:16.747Z,98570.35568432538
2023-01-11T08:51:16.567Z,98564.21789456416
2023-01-11T08:54:18.095Z,98566.30791727683
2023-01-11T08:57:16.864Z,98558.96252699842
2023-01-11T09:01:16.125Z,98562.2724211257
2023-01-11T09:04:24.914Z,98561.02542512237
2023-01-11T09:07:16.534Z,98562.61316072974
2023-01-11T09:11:54.960Z,98562.49723577095
2023-01-11T09:14:16.667Z,98559.31221199
2023-01-11T09:17:16.443Z,98565.24934791413
2023-01-11T09:21:16.062Z,98565.0573250568
2023-01-11T09:24:16.530Z,98563.10134525286
2023-01-11T09:27:16.914Z,98564.2126990774
2023-01-11T09:31:16.526Z,98563.43426922485
2023-01-11T09:34:16.915Z,98566.03790057184
2023-01-11T09:37:16.940Z,98565.08803806176
2023-01-11T09:41:34.212Z,98563.23565616515
2023-01-11T09:44:20.793Z,98562.59313349453
2023-01-11T09:47:24.295Z,98560.09041631746
2023-01-11T09:51:16.532Z,98561.65728065827
2023-01-11T09:54:23.505Z,98560.34532993149
2023-01-11T09:57:28.875Z,98559.30476852838
2023-01-11T10:01:21.742Z,98557.8741787473
2023-01-11T10:04:42.558Z,98555.68858204792
2023-01-11T10:07:34.855Z,98559.23679924906
2023-01-11T10:18:31.227Z,98562.566013113
2023-01-11T10:31:30.138Z,98544.0618898624
2023-01-11T10:34:42.165Z,98545.64681476234
2023-01-11T10:37:36.920Z,98550.83889763382
2023-01-11T10:41:25.058Z,98541.65505103949
2023-01-11T10:44:24.967Z,98539.58831610413
2023-01-11T10:47:26.151Z,98542.64943199664
2023-01-11T10:51:23.089Z,98538.00931208851
2023-01-11T10:54:25.436Z,98529.44177415862
2023-01-11T10:57:30.230Z,98534.85386597921
2023-01-11T11:01:28.937Z,98531.88876869967
2023-01-11T11:04:29.973Z,98533.45331775439
2023-01-11T11:07:25.192Z,98527.63927361467
2023-01-11T11:11:21.675Z,98519.84178770753
2023-01-11T11:14:27.271Z,98516.69827917272
2023-01-11T11:17:24.452Z,98516.838893774
2023-01-11T11:21:21.938Z,98507.99744000607
2023-01-11T11:24:24.315Z,98501.3883707156
2023-01-11T11:27:24.772Z,98489.59486744774
2023-01-11T11:31:16.999Z,98487.15361372038
2023-01-11T11:34:20.009Z,98476.15588068399
2023-01-11T11:37:22.999Z,98472.41516263587
2023-01-11T11:41:17.701Z,98458.48190959379
2023-01-11T11:44:20.561Z,98453.53576754207
2023-01-11T11:47:17.511Z,98449.41423731299
2023-01-11T11:51:22.471Z,98450.04413504837
2023-01-11T11:54:22.264Z,98443.90237351765
2023-01-11T11:57:23.521Z,98438.58789119835
2023-01-11T12:01:25.491Z,98432.15909755357
2023-01-11T12:04:20.337Z,98429.04256854516
2023-01-11T12:07:21.295Z,98418.07237311381
2023-01-11T12:11:21.637Z,98411.6954216519
2023-01-11T12:14:20.508Z,98407.50681060056
2023-01-11T12:17:23.788Z,98408.0760991044
2023-01-11T12:21:20.165Z,98401.27578720624
2023-01-11T12:24:18.441Z,98396.21880675461
2023-01-11T12:27:33.126Z,98391.23739622625
2023-01-11T12:31:28.163Z,98392.5183174721
2023-01-11T12:34:33.095Z,98397.66968532729
2023-01-11T12:37:30.028Z,98392.8447024609
2023-01-11T12:42:27.272Z,98393.29394832463
2023-01-11T12:44:33.547Z,98388.55573848604
2023-01-11T12:47:41.218Z,98387.31402068849
2023-01-11T12:51:34.052Z,98388.14195634573
2023-01-11T12:54:36.267Z,98384.56852213453
2023-01-11T12:57:26.142Z,98381.1274537842
2023-01-11T13:01:29.776Z,98383.35176314664
2023-01-11T13:04:43.458Z,98385.38484087342
2023-01-11T13:07:32.238Z,98392.1718133499
2023-01-11T13:11:47.663Z,98393.1624296166
2023-01-11T13:14:34.156Z,98387.42044607243
2023-01-11T13:17:33.489Z,98382.10611547639
2023-01-11T13:21:27.831Z,98378.52512367562
2023-01-11T13:24:22.115Z,98378.05559525662
2023-01-11T13:27:21.475Z,98377.06487697225
2023-01-11T13:31:18.145Z,98374.75261543885
2023-01-11T13:34:24.891Z,98371.4343254019
2023-01-11T13:37:23.434Z,98376.93805068759
2023-01-11T13:41:20.223Z,98377.84360930734
2023-01-11T13:44:23.791Z,98381.45801023603
2023-01-11T13:47:26.577Z,98378.65065663586
2023-01-11T13:51:30.709Z,98377.71284033776
2023-01-11T13:54:24.935Z,98384.50147971696
2023-01-11T13:57:33.191Z,98375.83256551308
2023-01-11T14:01:23.350Z,98369.57464171886
2023-01-11T14:04:26.876Z,98365.6206875937
2023-01-11T14:07:35.417Z,98366.83561492145
2023-01-11T14:11:25.739Z,98368.83128559274
2023-01-11T14:14:34.492Z,98367.37944788428
2023-01-11T14:17:29.708Z,98374.33014964705
2023-01-11T14:21:22.876Z,98371.86773929685
2023-01-11T14:24:20.101Z,98373.51810572216
2023-01-11T14:27:37.154Z,98380.09484876024
2023-01-11T14:31:34.825Z,98382.26363955328
2023-01-11T14:35:08.273Z,98379.46783444725
2023-01-11T14:37:36.562Z,98385.1761974796
2023-01-11T14:42:07.035Z,98375.79933877195
2023-01-11T14:44:32.489Z,98373.9926722164
2023-01-11T14:47:32.760Z,98374.8995009537
2023-01-11T14:51:33.578Z,98372.50692487568
2023-01-11T14:54:22.693Z,98372.1547456254
2023-01-11T14:58:25.769Z,98370.2808824748
2023-01-11T15:01:16.413Z,98369.26719042793
2023-01-11T15:04:21.111Z,98363.62504272904
2023-01-11T15:07:23.247Z,98355.32558154131
2023-01-11T15:11:31.678Z,98352.24561109435
2023-01-11T15:14:29.604Z,98345.36528816303
2023-01-11T15:18:24.548Z,98346.76799823836
2023-01-11T15:21:21.011Z,98341.09170286544
2023-01-11T15:24:23.933Z,98337.77878086438
2023-01-11T15:27:24.580Z,98341.1504517031
2023-01-11T15:31:36.355Z,98329.45697734962
2023-01-11T15:34:22.718Z,98331.18338675403
2023-01-11T15:37:27.910Z,98330.07810352444
2023-01-11T15:43:53.689Z,98329.79577218936
2023-01-11T15:44:33.568Z,98333.34959898406
2023-01-11T15:47:33.305Z,98334.84288339593
2023-01-11T15:51:34.806Z,98337.21346287374
2023-01-11T15:54:46.687Z,98337.00001643182
2023-01-11T15:57:33.524Z,98340.78691714408
2023-01-11T16:01:23.022Z,98343.65129165145
2023-01-11T16:04:26.620Z,98344.52558911781
2023-01-11T16:07:27.587Z,98348.61086904336
2023-01-11T16:11:26.061Z,98345.21505484071
2023-01-11T16:14:37.567Z,98349.66182065298
2023-01-11T16:17:21.496Z,98351.29309788543
2023-01-11T16:21:23.448Z,98349.84848530266
2023-01-11T16:24:20.696Z,98352.72050451752
2023-01-11T16:27:22.791Z,98350.08873783932
2023-01-11T16:31:16.756Z,98349.17263556994
2023-01-11T16:34:18.210Z,98345.15729065047
2023-01-11T16:37:23.152Z,98349.2697500435
2023-01-11T16:41:17.584Z,98352.5686306863
2023-01-11T16:44:26.638Z,98352.2785569348
2023-01-11T16:47:18.971Z,98351.16224558768
2023-01-11T16:51:19.923Z,98353.49867927504
2023-01-11T16:54:37.638Z,98359.26786292107
2023-01-11T16:57:25.014Z,98364.38799812958
2023-01-11T17:01:53.344Z,98364.8658975118
2023-01-11T17:04:31.122Z,98367.88934466745
2023-01-11T17:07:23.795Z,98374.22299058583
2023-01-11T17:11:29.024Z,98378.06573801208
2023-01-11T17:14:54.196Z,98372.00981365952
2023-01-11T17:17:39.911Z,98368.68553385568
2023-01-11T17:21:23.535Z,98365.73776987624
2023-01-11T17:31:35.112Z,98387.02881189916
2023-01-11T17:34:26.749Z,98382.5357639282
2023-01-11T17:37:20.931Z,98386.15518344207
2023-01-11T17:45:20.795Z,98392.12216885861
2023-01-11T17:47:18.805Z,98401.7748883603
2023-01-11T17:51:24.563Z,98394.15843739049
2023-01-11T17:54:23.996Z,98388.30147323427
2023-01-11T17:57:20.195Z,98393.88295586666
2023-01-11T18:01:23.139Z,98387.57994558105
2023-01-11T18:04:32.396Z,98387.1851131159
2023-01-11T18:07:19.257Z,98378.60814081998
2023-01-11T18:11:23.289Z,98385.39972626283
2023-01-11T18:14:30.192Z,98377.98818108252
2023-01-11T18:17:45.673Z,98371.96937147324
2023-01-11T18:21:58.948Z,98375.95839185687
2023-01-11T18:24:35.607Z,98384.81909552038
2023-01-11T18:27:29.498Z,98383.17164877543
2023-01-11T18:31:23.097Z,98371.63838643029
2023-01-11T18:34:36.865Z,98366.0855842258
2023-01-11T18:37:21.409Z,98362.25314002318
2023-01-11T18:42:28.115Z,98362.9958826949
2023-01-11T18:44:29.822Z,98367.32113920803
2023-01-11T18:47:23.690Z,98363.06829454098
2023-01-11T18:51:20.928Z,98354.75132266743
2023-01-11T18:54:36.900Z,98352.12721240899
2023-01-11T18:57:17.131Z,98355.87743347132
2023-01-11T19:01:17.509Z,98359.54697159055
2023-01-11T19:04:17.199Z,98362.4788722129
2023-01-11T19:07:18.187Z,98362.9652415247
2023-01-11T19:11:17.422Z,98366.56305256486
2023-01-11T19:14:16.847Z,98370.9222941296
2023-01-11T19:17:16.869Z,98375.26201812318
2023-01-11T19:21:16.930Z,98378.34850105991
2023-01-11T19:24:17.398Z,98373.70976310848
2023-01-11T19:27:17.359Z,98367.96233075907
2023-01-11T19:31:17.244Z,98378.28531020173
2023-01-11T19:34:18.207Z,98371.9956382865
2023-01-11T19:37:17.552Z,98374.27332799388
2023-01-11T19:41:17.118Z,98374.08256010362
2023-01-11T19:44:17.838Z,98377.87350692356
2023-01-11T19:47:17.064Z,98373.74126654663
2023-01-11T19:51:16.414Z,98371.49201953536
2023-01-11T19:54:17.646Z,98377.89776787287
2023-01-11T19:57:19.956Z,98372.17615417931
2023-01-11T20:01:16.816Z,98374.10617170169
2023-01-11T20:04:16.939Z,98384.20395894207
2023-01-11T20:07:17.048Z,98386.3840904599
2023-01-11T20:11:18.460Z,98392.10581919449
2023-01-11T20:14:17.210Z,98391.897633414
2023-01-11T20:17:21.964Z,98380.72264726202
2023-01-11T20:21:18.690Z,98374.2248753529
2023-01-11T20:24:18.353Z,98376.95955467316
2023-01-11T20:27:17.577Z,98363.53957563009
2023-01-11T20:31:17.692Z,98359.30945765265
2023-01-11T20:34:19.210Z,98357.47159287853
2023-01-11T20:37:17.772Z,98357.87916188895
2023-01-11T20:41:47.066Z,98357.09834452064
2023-01-11T20:44:20.306Z,98357.62774786724
2023-01-11T20:47:16.830Z,98359.47876402336
2023-01-11T20:51:16.631Z,98352.58957142655
2023-01-11T20:54:17.394Z,98350.73516198865
2023-01-11T20:57:17.150Z,98351.39568576972
2023-01-11T21:01:18.033Z,98349.39276373593
2023-01-11T21:04:18.179Z,98343.8137641683
2023-01-11T21:07:17.244Z,98342.42046707419
2023-01-11T21:11:17.036Z,98340.10523649125
2023-01-11T21:14:17.344Z,98346.08514401468
2023-01-11T21:17:17.329Z,98349.87782701316
2023-01-11T21:21:18.891Z,98349.40787014153
2023-01-11T21:24:16.529Z,98351.78865355966
2023-01-11T21:27:16.513Z,98346.05793766887
2023-01-11T21:31:19.249Z,98344.62679859082
2023-01-11T21:34:17.319Z,98342.78831462449
2023-01-11T21:37:17.247Z,98339.07267414709
2023-01-11T21:41:18.959Z,98337.22806937291
2023-01-11T21:44:18.075Z,98338.34078609418
2023-01-11T21:47:18.404Z,98337.79466051656
2023-01-11T21:51:17.077Z,98328.19858841908
2023-01-11T21:54:19.469Z,98326.00495282754
2023-01-11T21:57:17.261Z,98317.8418479186
2023-01-11T22:01:18.014Z,98317.61246169946
2023-01-11T22:04:19.691Z,98324.06015718165
2023-01-11T22:07:17.395Z,98325.69859633774
2023-01-11T22:11:17.434Z,98323.75969844789
2023-01-11T22:14:17.066Z,98327.89587146741
2023-01-11T22:17:17.100Z,98328.83805550549
2023-01-11T22:21:18.876Z,98326.07656625075
2023-01-11T22:24:18.177Z,98331.32620599886
2023-01-11T22:27:17.040Z,98331.46426164663
2023-01-11T22:31:16.308Z,98338.10447264371
2023-01-11T22:34:17.444Z,98335.86273103108
2023-01-11T22:37:16.739Z,98338.0380386805
2023-01-11T22:41:16.269Z,98343.677588396
2023-01-11T22:44:17.264Z,98354.23130284977
2023-01-11T22:47:16.568Z,98347.02876697783
2023-01-11T22:51:18.111Z,98338.89077335015
2023-01-11T22:54:16.707Z,98338.48838189969
2023-01-11T22:57:16.501Z,98339.82336415262
2023-01-11T23:01:18.840Z,98331.83549553317
2023-01-11T23:04:16.368Z,98327.21060159449
2023-01-11T23:07:16.323Z,98326.3061043712
2023-01-11T23:13:52.839Z,98324.40984790123
2023-01-11T23:14:20.254Z,98322.21276351549
2023-01-11T23:17:19.347Z,98322.75302295879
2023-01-11T23:21:16.576Z,98313.95618554007
2023-01-11T23:24:17.293Z,98310.28029558399
2023-01-11T23:27:16.788Z,98307.10235850587
2023-01-11T23:31:19.408Z,98303.69534287654
2023-01-11T23:34:17.226Z,98304.21558583854
2023-01-11T23:37:17.067Z,98301.98658399854
2023-01-11T23:51:16.740Z,98290.1491023174
2023-01-11T23:54:17.060Z,98293.34624505253
2023-01-11T23:57:19.503Z,98294.10996743792
